Time;durP1;ratioP1;P1;durP2;ratioP2;P2;SDS_P1;SDS_P2;PMS_P1;PMS_P2;Temp;Humidity;BMP_temperature;BMP_pressure;BME280_temperature;BME280_humidity;BME280_pressure;Samples;Min_cycle;Max_cycle;Signal;HPM_P1;HPM_P2
2022/12/23 00:00:13;;;;;;;2.20;0.90;;;;;;;15.22;88.36;100300.38;5095672;28;20051;-64
2022/12/23 00:02:41;;;;;;;3.92;0.70;;;;;;;15.13;88.53;100307.25;5078683;28;20047;-64
2022/12/23 00:05:09;;;;;;;1.77;0.70;;;;;;;15.09;88.65;100309.09;5094484;28;20052;-64
2022/12/23 00:07:36;;;;;;;2.63;1.00;;;;;;;15.13;88.95;100305.25;5111564;27;20052;-64
2022/12/23 00:10:04;;;;;;;3.05;0.77;;;;;;;15.18;88.63;100307.81;5062632;28;20051;-64
2022/12/23 00:15:24;;;;;;;3.53;0.70;;;;;;;15.52;87.43;100300.81;5078052;28;20059;-63
2022/12/23 00:17:54;;;;;;;1.80;0.93;;;;;;;15.57;86.89;100295.81;5079530;28;20497;-64
2022/12/23 00:20:22;;;;;;;2.55;0.88;;;;;;;15.22;87.84;100292.06;5096085;28;20036;-64
2022/12/23 00:23:05;;;;;;;3.88;1.00;;;;;;;15.12;90.17;100309.22;5063282;28;20059;-63
2022/12/23 00:25:45;;;;;;;1.52;0.90;;;;;;;15.01;91.35;100312.84;5073365;28;20044;-63
2022/12/23 00:28:18;;;;;;;2.58;1.20;;;;;;;14.98;91.21;100319.91;5078721;28;20051;-64
2022/12/23 00:31:00;;;;;;;4.50;1.30;;;;;;;15.04;92.03;100318.50;5092355;28;20399;-64
2022/12/23 00:33:32;;;;;;;3.42;1.00;;;;;;;14.99;92.31;100317.94;5093233;28;20040;-64
2022/12/23 00:36:00;;;;;;;2.85;0.95;;;;;;;15.06;92.80;100307.88;5092068;28;20059;-64
2022/12/23 00:44:03;;;;;;;3.63;1.02;;;;;;;15.01;94.07;100308.09;5106966;27;20056;-64
2022/12/23 00:46:33;;;;;;;5.90;1.27;;;;;;;14.95;94.75;100305.94;5109161;27;20036;-65
2022/12/23 00:51:47;;;;;;;2.83;0.98;;;;;;;14.85;97.37;100318.34;5077403;28;20044;-63
2022/12/23 00:54:18;;;;;;;4.05;1.30;;;;;;;14.75;98.31;100320.78;5078340;28;20055;-65
2022/12/23 00:56:48;;;;;;;4.85;1.08;;;;;;;14.85;98.61;100326.66;5095777;28;20040;-66
2022/12/23 00:59:16;;;;;;;;;;;;;;;14.85;98.96;100329.44;5095286;28;20063;-63
2022/12/23 01:07:15;;;;;;;3.92;0.98;;;;;;;14.84;100.00;100344.44;5095131;28;20047;-63
2022/12/23 01:09:43;;;;;;;2.10;0.60;;;;;;;14.68;100.00;100333.28;5095376;28;20046;-63
2022/12/23 01:12:10;;;;;;;1.20;0.55;;;;;;;14.71;100.00;100344.81;5095523;28;20048;-64
2022/12/23 01:14:38;;;;;;;1.88;0.80;;;;;;;14.72;100.00;100338.09;5096070;28;20042;-65
2022/12/23 01:17:06;;;;;;;1.75;0.68;;;;;;;14.72;100.00;100340.88;5077074;28;20434;-63
2022/12/23 01:19:33;;;;;;;2.83;0.50;;;;;;;14.72;100.00;100338.94;5095104;28;20051;-63
2022/12/23 01:22:02;;;;;;;2.25;0.50;;;;;;;14.73;100.00;100342.50;5095121;28;20044;-63
2022/12/23 01:24:30;;;;;;;0.80;0.50;;;;;;;14.66;100.00;100341.13;5109978;27;20048;-64
2022/12/23 01:26:58;;;;;;;1.95;0.65;;;;;;;15.19;100.00;100339.94;5094161;28;20052;-64
2022/12/23 01:29:26;;;;;;;1.85;0.70;;;;;;;15.07;98.86;100342.75;5093819;28;20036;-64
2022/12/23 01:31:53;;;;;;;1.23;0.55;;;;;;;14.98;100.00;100347.63;5095488;28;20052;-64
2022/12/23 01:34:21;;;;;;;0.77;0.50;;;;;;;14.85;100.00;100346.06;5076350;28;20039;-64
2022/12/23 01:36:48;;;;;;;1.65;0.73;;;;;;;14.72;100.00;100341.69;5077877;28;20063;-63
2022/12/23 01:39:15;;;;;;;1.48;0.60;;;;;;;14.58;100.00;100341.25;5076648;28;20047;-63
2022/12/23 01:44:51;;;;;;;2.90;0.70;;;;;;;14.75;100.00;100337.44;5098509;28;20039;-63
2022/12/23 01:47:21;;;;;;;1.53;0.50;;;;;;;14.86;100.00;100346.84;5068767;28;20067;-64
2022/12/23 01:49:49;;;;;;;3.25;0.77;;;;;;;14.74;100.00;100338.56;5099136;28;20294;-64
2022/12/23 01:52:17;;;;;;;2.72;1.10;;;;;;;14.71;100.00;100351.19;5091312;28;20047;-64
2022/12/23 01:54:44;;;;;;;2.88;1.23;;;;;;;14.83;100.00;100345.63;5094699;28;20063;-65
2022/12/23 01:57:12;;;;;;;8.57;3.00;;;;;;;14.74;100.00;100347.72;5076648;28;20051;-65
2022/12/23 02:05:15;;;;;;;9.73;1.70;;;;;;;14.88;100.00;100348.13;5106655;28;20040;-64
2022/12/23 02:10:43;;;;;;;6.72;2.20;;;;;;;15.33;97.55;100345.06;5094271;28;20055;-64
2022/12/23 02:13:23;;;;;;;9.88;1.90;;;;;;;15.25;97.11;100346.84;5093569;28;20423;-64
2022/12/23 02:18:49;;;;;;;5.93;1.73;;;;;;;15.16;96.32;100348.97;5090301;28;20459;-63
2022/12/23 02:21:20;;;;;;;7.53;1.45;;;;;;;15.02;97.03;100339.41;5109304;28;20051;-64
2022/12/23 02:24:16;;;;;;;4.43;1.20;;;;;;;15.16;96.28;100335.09;5076639;28;20055;-64
2022/12/23 02:27:18;;;;;;;7.28;1.23;;;;;;;15.06;96.97;100332.84;5053621;28;20048;-64
2022/12/23 02:30:20;;;;;;;6.53;1.27;;;;;;;15.03;96.62;100335.50;5091178;28;20048;-64
2022/12/23 02:33:06;;;;;;;8.15;1.60;;;;;;;15.14;96.00;100333.81;5090056;28;20533;-63
2022/12/23 02:35:45;;;;;;;7.75;1.58;;;;;;;15.01;95.12;100335.03;5093725;28;20052;-63
2022/12/23 02:38:28;;;;;;;13.95;1.80;;;;;;;15.24;93.45;100328.56;5057381;28;20044;-63
2022/12/23 02:41:11;;;;;;;6.72;1.77;;;;;;;15.22;93.81;100330.91;5091507;28;20051;-63
2022/12/23 02:43:46;;;;;;;6.43;1.60;;;;;;;15.07;93.67;100334.44;5094446;28;20048;-64
2022/12/23 02:46:25;;;;;;;9.95;1.63;;;;;;;15.19;92.78;100333.56;5068835;28;20051;-65
2022/12/23 02:49:10;;;;;;;12.15;1.83;;;;;;;15.24;92.56;100330.53;5092267;28;20181;-64
2022/12/23 02:51:42;;;;;;;8.00;2.13;;;;;;;15.43;91.84;100334.28;5094964;28;20403;-64
2022/12/23 02:54:14;;;;;;;9.32;2.28;;;;;;;14.98;92.06;100328.22;5090647;28;20044;-64
2022/12/23 02:56:45;;;;;;;8.60;1.95;;;;;;;15.11;92.46;100329.81;5109298;28;20044;-64
2022/12/23 02:59:16;;;;;;;10.13;1.85;;;;;;;15.16;92.00;100331.50;5076176;28;20039;-63
2022/12/23 03:01:44;;;;;;;7.72;2.13;;;;;;;15.15;91.47;100336.25;5057075;28;20075;-63
2022/12/23 03:04:13;;;;;;;10.88;2.47;;;;;;;15.26;90.67;100333.75;5098909;28;20044;-64
2022/12/23 03:06:42;;;;;;;8.68;1.92;;;;;;;15.27;90.43;100338.97;5059985;28;20055;-64
2022/12/23 03:09:16;;;;;;;11.25;1.98;;;;;;;15.14;90.79;100337.41;5079681;28;20040;-64
2022/12/23 03:12:15;;;;;;;8.18;1.80;;;;;;;15.30;90.11;100334.69;5075766;28;20044;-64
2022/12/23 03:15:07;;;;;;;11.93;2.47;;;;;;;15.05;90.60;100341.47;5062895;28;20043;-64
2022/12/23 03:18:00;;;;;;;11.30;2.08;;;;;;;15.03;90.58;100329.97;5095959;28;20415;-64
2022/12/23 03:20:50;;;;;;;8.65;1.92;;;;;;;15.04;90.24;100317.69;5109144;28;20044;-64
2022/12/23 03:23:25;;;;;;;8.60;1.83;;;;;;;15.18;90.29;100313.34;5095456;28;20048;-63
2022/12/23 03:26:15;;;;;;;11.35;2.25;;;;;;;15.31;89.96;100320.44;5077982;28;20056;-64
2022/12/23 03:28:50;;;;;;;9.50;2.05;;;;;;;15.04;89.98;100326.00;5113149;27;20048;-64
2022/12/23 03:31:23;;;;;;;11.80;2.30;;;;;;;15.13;90.18;100335.00;5096324;28;20055;-64
2022/12/23 03:34:02;;;;;;;12.05;2.33;;;;;;;15.19;90.13;100319.69;5095658;28;20040;-63
2022/12/23 03:36:43;;;;;;;12.23;2.17;;;;;;;15.06;90.24;100332.03;5093347;28;20039;-63
2022/12/23 03:39:15;;;;;;;10.95;2.35;;;;;;;14.95;90.31;100322.56;5062477;28;20051;-63
2022/12/23 03:41:53;;;;;;;10.25;2.30;;;;;;;15.12;90.22;100327.81;5095224;28;20510;-63
2022/12/23 03:44:27;;;;;;;13.68;2.17;;;;;;;14.95;90.61;100334.47;5112267;28;20052;-64
2022/12/23 03:47:06;;;;;;;9.13;1.80;;;;;;;15.07;90.91;100326.13;5094807;28;20052;-63
2022/12/23 03:49:43;;;;;;;11.27;2.78;;;;;;;15.05;90.70;100319.28;5078274;28;20044;-64
2022/12/23 03:52:20;;;;;;;12.30;2.85;;;;;;;14.93;90.99;100327.66;5096765;28;20044;-64
2022/12/23 03:54:52;;;;;;;11.55;2.50;;;;;;;15.01;90.84;100335.81;5079174;28;20048;-63
2022/12/23 03:57:25;;;;;;;10.30;2.38;;;;;;;15.06;90.78;100327.28;5078839;28;20040;-65
2022/12/23 03:59:53;;;;;;;13.07;2.35;;;;;;;15.17;90.08;100330.34;5095300;28;20435;-64
2022/12/23 04:02:34;;;;;;;11.90;2.03;;;;;;;15.17;90.37;100331.16;5096385;28;20486;-64
2022/12/23 04:05:23;;;;;;;11.00;2.40;;;;;;;14.96;90.94;100324.19;5069506;28;20056;-64
2022/12/23 04:08:12;;;;;;;12.10;2.50;;;;;;;15.15;90.97;100311.28;5095537;28;20462;-63
2022/12/23 04:10:39;;;;;;;9.70;2.35;;;;;;;15.02;91.50;100295.84;5074359;28;20506;-64
2022/12/23 04:13:07;;;;;;;9.98;1.80;;;;;;;15.05;91.22;100309.00;5077660;28;20525;-64
2022/12/23 04:15:39;;;;;;;11.35;2.10;;;;;;;14.91;91.99;100303.06;5111734;28;20052;-65
2022/12/23 04:18:08;;;;;;;11.07;2.28;;;;;;;15.06;91.77;100304.28;5060383;28;20498;-65
2022/12/23 04:20:36;;;;;;;12.63;2.20;;;;;;;14.98;91.55;100303.25;5090714;28;20051;-65
2022/12/23 04:23:04;;;;;;;11.15;2.13;;;;;;;14.90;92.42;100306.19;5096261;28;20036;-65
2022/12/23 04:25:31;;;;;;;11.35;2.45;;;;;;;14.68;93.54;100316.63;5100109;28;20048;-64
2022/12/23 04:27:58;;;;;;;13.32;2.55;;;;;;;14.90;93.76;100317.28;5094478;28;20048;-64
2022/12/23 04:30:25;;;;;;;8.32;2.15;;;;;;;14.98;92.71;100324.63;5095310;28;20422;-64
2022/12/23 04:33:01;;;;;;;12.02;2.70;;;;;;;14.94;92.89;100320.97;5096365;28;20059;-64
2022/12/23 04:35:29;;;;;;;13.80;2.88;;;;;;;14.94;93.13;100318.19;5095829;28;20075;-64
2022/12/23 04:37:56;;;;;;;14.93;2.75;;;;;;;14.89;92.54;100319.22;5077985;28;20052;-64
2022/12/23 04:40:23;;;;;;;14.13;2.75;;;;;;;15.02;92.97;100311.69;5060966;28;20048;-64
2022/12/23 04:42:51;;;;;;;11.32;2.88;;;;;;;14.90;93.16;100312.53;5099202;28;20036;-64
2022/12/23 04:45:18;;;;;;;12.23;2.75;;;;;;;14.92;93.11;100303.88;5095591;28;20048;-64
2022/12/23 04:47:46;;;;;;;11.00;3.05;;;;;;;14.66;94.16;100288.47;5096049;28;20040;-65
2022/12/23 04:50:14;;;;;;;12.80;2.97;;;;;;;14.90;93.91;100295.91;5095147;28;20436;-63
2022/12/23 04:52:42;;;;;;;10.90;2.70;;;;;;;14.96;93.28;100288.94;5077721;28;20043;-66
2022/12/23 04:55:10;;;;;;;12.55;2.58;;;;;;;15.00;92.89;100278.75;5095038;28;20047;-65
2022/12/23 04:57:37;;;;;;;17.77;2.88;;;;;;;14.93;92.92;100280.50;5078526;28;20067;-64
2022/12/23 05:00:07;;;;;;;11.65;2.78;;;;;;;14.92;93.29;100287.22;5077345;28;20040;-64
2022/12/23 05:02:34;;;;;;;14.43;3.67;;;;;;;14.93;92.79;100280.50;5060347;28;20127;-64
2022/12/23 05:05:02;;;;;;;12.25;2.63;;;;;;;14.82;93.71;100277.44;5092381;28;20494;-64
2022/12/23 05:07:29;;;;;;;12.50;3.35;;;;;;;14.86;93.89;100280.31;5095283;28;20519;-64
2022/12/23 05:10:00;;;;;;;12.98;2.75;;;;;;;14.77;94.49;100285.22;5095412;28;20063;-64
2022/12/23 05:12:30;;;;;;;19.45;2.92;;;;;;;14.65;95.50;100280.50;5118038;27;20051;-64
2022/12/23 05:14:57;;;;;;;17.52;3.33;;;;;;;14.88;95.08;100281.59;5075059;28;20052;-63
2022/12/23 05:17:24;;;;;;;10.38;2.60;;;;;;;14.73;95.09;100293.44;5059509;28;20048;-63
2022/12/23 05:19:52;;;;;;;10.82;2.67;;;;;;;14.74;95.88;100288.66;5095685;28;20040;-64
2022/12/23 05:22:19;;;;;;;7.05;2.20;;;;;;;14.91;95.35;100280.88;5095001;28;20063;-64
2022/12/23 05:24:47;;;;;;;12.50;2.30;;;;;;;14.82;95.31;100282.19;5094304;28;20053;-64
2022/12/23 05:27:14;;;;;;;11.73;2.30;;;;;;;14.80;95.88;100277.00;5095414;28;20048;-64
2022/12/23 05:29:41;;;;;;;10.43;2.45;;;;;;;14.78;95.71;100276.53;5100228;28;20066;-64
2022/12/23 05:32:09;;;;;;;11.20;2.60;;;;;;;14.90;95.76;100270.94;5071318;28;20048;-64
2022/12/23 05:34:36;;;;;;;11.13;2.28;;;;;;;14.97;95.52;100279.47;5082396;28;20056;-64
2022/12/23 05:37:03;;;;;;;12.68;2.30;;;;;;;14.91;95.76;100280.06;5062210;28;20051;-64
2022/12/23 05:39:31;;;;;;;13.13;2.78;;;;;;;14.81;96.49;100278.59;5099094;28;20035;-64
2022/12/23 05:41:58;;;;;;;9.50;2.50;;;;;;;14.83;96.92;100272.69;5107091;28;20059;-63
2022/12/23 05:44:25;;;;;;;13.90;2.92;;;;;;;14.90;97.17;100275.69;5094807;28;20131;-64
2022/12/23 05:46:53;;;;;;;11.40;1.90;;;;;;;14.86;97.27;100261.72;5094378;28;20056;-64
2022/12/23 05:49:21;;;;;;;7.38;2.13;;;;;;;14.93;97.53;100256.38;5091574;28;20060;-64
2022/12/23 05:51:48;;;;;;;10.80;2.70;;;;;;;14.78;97.88;100248.81;5093172;28;20063;-64
2022/12/23 05:54:16;;;;;;;8.15;1.92;;;;;;;14.67;99.20;100258.78;5093542;28;20056;-64
2022/12/23 05:56:43;;;;;;;6.50;1.80;;;;;;;14.77;100.00;100249.97;5093412;28;20079;-63
2022/12/23 05:59:10;;;;;;;6.65;1.60;;;;;;;14.89;99.86;100249.13;5092955;28;20422;-64
2022/12/23 06:01:38;;;;;;;8.63;1.55;;;;;;;14.97;99.52;100246.19;5073953;28;20055;-63
2022/12/23 06:04:05;;;;;;;7.80;2.20;;;;;;;14.91;99.43;100255.09;5094615;28;20402;-64
2022/12/23 06:06:33;;;;;;;6.85;2.00;;;;;;;14.84;100.00;100252.94;5094949;28;20055;-64
2022/12/23 06:09:00;;;;;;;4.68;1.40;;;;;;;14.80;100.00;100252.03;5095412;28;20048;-64
2022/12/23 06:11:27;;;;;;;6.68;1.45;;;;;;;14.77;100.00;100249.97;5076486;28;20048;-64
2022/12/23 06:13:55;;;;;;;6.68;1.80;;;;;;;14.85;100.00;100246.25;5077103;28;20498;-64
2022/12/23 06:16:22;;;;;;;10.93;1.90;;;;;;;14.88;100.00;100247.50;5075217;28;20048;-64
2022/12/23 06:18:54;;;;;;;3.70;1.30;;;;;;;14.79;100.00;100244.06;5095288;28;20055;-64
2022/12/23 06:21:21;;;;;;;4.07;1.58;;;;;;;14.80;100.00;100251.22;5077213;28;20063;-65
2022/12/23 06:23:48;;;;;;;5.57;1.55;;;;;;;14.85;100.00;100243.47;5095349;28;20056;-65
2022/12/23 06:26:16;;;;;;;4.43;1.35;;;;;;;14.94;100.00;100249.66;5076696;28;20048;-65
2022/12/23 06:28:43;;;;;;;6.15;1.42;;;;;;;14.92;100.00;100246.44;5095181;28;20059;-64
2022/12/23 06:31:10;;;;;;;2.90;0.93;;;;;;;14.91;100.00;100253.13;5058390;28;20056;-64
2022/12/23 06:33:38;;;;;;;3.65;1.00;;;;;;;14.98;100.00;100238.66;5077695;28;20056;-63
2022/12/23 06:36:06;;;;;;;4.47;1.10;;;;;;;14.89;100.00;100233.25;5096963;28;20055;-64
2022/12/23 06:38:33;;;;;;;6.78;1.20;;;;;;;15.04;100.00;100232.53;5099866;28;20059;-63
2022/12/23 06:41:01;;;;;;;3.03;1.10;;;;;;;15.24;99.60;100219.56;5098151;28;20055;-64
2022/12/23 06:43:28;;;;;;;3.38;0.77;;;;;;;15.41;97.49;100217.28;5098921;28;20517;-63
2022/12/23 06:45:56;;;;;;;2.25;0.80;;;;;;;15.18;98.37;100223.75;5098263;28;20044;-64
2022/12/23 06:48:23;;;;;;;1.90;0.70;;;;;;;15.12;98.73;100214.06;5098908;28;20060;-64
2022/12/23 06:50:51;;;;;;;4.10;1.00;;;;;;;14.91;99.20;100216.28;5097189;28;20402;-64
2022/12/23 06:53:18;;;;;;;1.88;0.77;;;;;;;14.98;100.00;100217.28;5097851;28;20052;-63
2022/12/23 06:55:46;;;;;;;3.15;0.70;;;;;;;14.97;99.92;100209.31;5093241;28;20051;-64
2022/12/23 06:58:13;;;;;;;2.78;0.80;;;;;;;15.06;99.83;100208.00;5098076;28;20055;-65
2022/12/23 07:00:41;;;;;;;7.95;1.20;;;;;;;15.19;99.39;100200.41;5097341;28;20055;-64
2022/12/23 07:03:08;;;;;;;2.70;1.10;;;;;;;15.29;97.89;100202.66;5062916;28;20048;-65
2022/12/23 07:05:35;;;;;;;4.30;1.10;;;;;;;15.23;97.36;100192.97;5098067;28;20059;-64
2022/12/23 07:08:04;;;;;;;3.35;0.80;;;;;;;15.50;97.11;100194.88;5097611;28;20052;-65
2022/12/23 07:10:32;;;;;;;3.25;0.90;;;;;;;15.49;95.88;100184.97;5096043;28;20048;-64
2022/12/23 07:13:00;;;;;;;2.05;0.80;;;;;;;15.60;94.52;100186.81;5096835;28;20498;-63
2022/12/23 07:15:27;;;;;;;2.25;0.80;;;;;;;15.55;95.15;100189.88;5113907;28;20051;-64
2022/12/23 07:17:55;;;;;;;1.35;0.77;;;;;;;15.39;95.64;100188.25;5079536;28;20052;-63
2022/12/23 07:20:22;;;;;;;1.20;0.70;;;;;;;15.61;95.95;100194.00;5097513;28;20048;-64
2022/12/23 07:22:53;;;;;;;3.03;0.80;;;;;;;15.51;94.86;100175.13;5079666;28;20067;-64
2022/12/23 07:25:20;;;;;;;3.10;0.88;;;;;;;15.48;95.54;100184.13;5097535;28;20632;-65
2022/12/23 07:27:51;;;;;;;2.15;0.70;;;;;;;15.25;96.04;100180.38;5098174;28;20752;-63
2022/12/23 07:30:18;;;;;;;3.42;0.80;;;;;;;15.35;96.28;100174.28;5080046;28;20455;-63
2022/12/23 07:32:49;;;;;;;8.27;1.15;;;;;;;15.44;96.20;100185.22;5095670;28;20048;-64
2022/12/23 07:35:17;;;;;;;3.55;0.60;;;;;;;15.83;93.96;100181.41;5094620;28;20052;-64
2022/12/23 07:37:45;;;;;;;2.25;1.00;;;;;;;15.59;94.05;100187.19;5097821;28;20044;-64
2022/12/23 07:40:12;;;;;;;4.28;0.65;;;;;;;15.54;94.59;100174.38;5097581;28;20048;-64
2022/12/23 07:42:40;;;;;;;1.38;0.55;;;;;;;15.52;95.52;100185.03;5097218;28;20044;-64
2022/12/23 07:45:13;;;;;;;2.65;0.98;;;;;;;15.59;94.68;100190.78;5096657;28;20051;-64
2022/12/23 07:47:41;;;;;;;3.47;1.17;;;;;;;15.35;95.49;100190.13;5079135;28;20052;-63
2022/12/23 07:50:08;;;;;;;2.45;0.90;;;;;;;15.25;96.61;100190.66;5079444;28;20059;-63
2022/12/23 07:52:36;;;;;;;2.20;0.90;;;;;;;15.48;96.00;100183.34;5078037;28;20364;-64
2022/12/23 07:55:04;;;;;;;4.28;0.82;;;;;;;15.60;94.94;100175.72;5079081;28;20055;-62
2022/12/23 07:57:36;;;;;;;2.13;0.95;;;;;;;15.79;93.38;100183.31;5095364;28;20074;-63
2022/12/23 08:00:06;;;;;;;4.05;1.90;;;;;;;15.62;93.59;100169.81;5094475;28;20138;-64
2022/12/23 08:02:38;;;;;;;4.55;1.00;;;;;;;15.73;93.41;100176.41;5120328;27;20063;-63
2022/12/23 08:05:07;;;;;;;4.13;1.15;;;;;;;15.69;93.65;100181.88;5071813;28;20053;-63
2022/12/23 08:07:35;;;;;;;3.38;1.00;;;;;;;15.57;94.31;100172.84;5082216;28;20535;-64
2022/12/23 08:10:03;;;;;;;4.30;1.10;;;;;;;15.87;92.44;100170.38;5094909;28;20036;-65
2022/12/23 08:12:30;;;;;;;2.65;1.00;;;;;;;15.69;93.10;100181.09;5077420;28;20044;-64
2022/12/23 08:14:57;;;;;;;4.78;1.20;;;;;;;15.88;92.57;100174.78;5096289;28;20048;-64
2022/12/23 08:17:26;;;;;;;3.38;1.00;;;;;;;15.87;92.23;100175.94;5109425;28;20063;-63
2022/12/23 08:19:54;;;;;;;3.92;1.10;;;;;;;16.15;94.82;100168.25;5073029;28;20049;-68
2022/12/23 08:22:22;;;;;;;5.75;0.93;;;;;;;16.29;93.48;100157.44;5071021;28;20048;-62
2022/12/23 08:24:49;;;;;;;2.05;0.57;;;;;;;16.29;90.69;100151.88;5094753;28;20079;-63
2022/12/23 08:27:16;;;;;;;3.75;0.88;;;;;;;15.94;90.64;100149.13;5101690;28;20048;-64
2022/12/23 08:29:44;;;;;;;3.35;1.08;;;;;;;15.72;91.81;100149.84;5075814;28;20048;-64
2022/12/23 08:32:11;;;;;;;2.65;1.00;;;;;;;15.81;91.88;100155.19;5090298;28;20055;-63
2022/12/23 08:34:39;;;;;;;4.35;0.90;;;;;;;16.16;91.07;100150.44;5095699;28;20040;-63
2022/12/23 08:37:06;;;;;;;3.22;0.90;;;;;;;16.05;90.28;100147.41;5093189;28;20043;-63
2022/12/23 08:39:33;;;;;;;4.45;1.30;;;;;;;16.01;91.10;100142.94;5059308;28;20368;-63
2022/12/23 08:42:01;;;;;;;5.70;1.00;;;;;;;16.04;91.04;100136.66;5098166;28;20652;-63
2022/12/23 08:44:28;;;;;;;6.68;1.45;;;;;;;15.86;92.04;100141.81;5076240;28;20051;-62
2022/12/23 08:46:56;;;;;;;3.17;1.00;;;;;;;15.95;92.04;100136.06;5095925;28;20051;-62
2022/12/23 08:49:23;;;;;;;1.48;0.80;;;;;;;15.95;91.41;100119.41;5075879;28;20542;-62
2022/12/23 08:51:50;;;;;;;2.90;1.10;;;;;;;15.95;91.76;100120.22;5075201;28;20076;-63
2022/12/23 08:54:19;;;;;;;2.58;0.95;;;;;;;15.90;91.95;100117.69;5075542;28;20055;-63
2022/12/23 08:56:46;;;;;;;2.83;0.90;;;;;;;16.01;91.45;100106.81;5094531;28;20048;-63
2022/12/23 08:59:15;;;;;;;4.53;1.20;;;;;;;16.02;91.21;100086.22;5058695;28;20590;-64
2022/12/23 09:01:46;;;;;;;3.33;0.80;;;;;;;16.08;90.91;100091.13;5097420;28;20483;-66
2022/12/23 09:04:14;;;;;;;4.25;1.88;;;;;;;16.00;91.23;100078.25;5093543;28;20586;-63
2022/12/23 09:06:42;;;;;;;3.65;1.25;;;;;;;16.07;91.08;100060.91;5093923;28;20052;-61
2022/12/23 09:09:11;;;;;;;7.10;1.40;;;;;;;15.91;91.72;100038.78;5104446;28;20064;-64
2022/12/23 09:11:38;;;;;;;5.60;2.50;;;;;;;15.94;92.20;99995.56;5091935;28;20047;-64
2022/12/23 09:14:08;;;;;;;17.48;9.70;;;;;;;16.07;92.18;99991.47;5111143;28;20051;-67
2022/12/23 09:16:36;;;;;;;;;;;;;;;16.09;91.71;99978.78;5085546;28;20047;-72
2022/12/23 09:19:03;;;;;;;41.78;32.53;;;;;;;16.07;91.96;100000.63;5094481;28;19931;-66
2022/12/23 09:21:31;;;;;;;12.95;7.35;;;;;;;16.01;92.17;100009.59;5092961;28;20047;-68
2022/12/23 09:23:58;;;;;;;11.82;6.55;;;;;;;15.92;92.47;100040.38;5076082;28;20493;-69
2022/12/23 09:26:27;;;;;;;10.13;5.97;;;;;;;15.96;92.87;100059.88;5094117;28;20055;-64
2022/12/23 09:28:55;;;;;;;22.75;13.93;;;;;;;15.81;93.99;100077.44;5098417;28;20056;-69
2022/12/23 09:31:23;;;;;;;12.63;6.47;;;;;;;15.81;93.86;100075.47;5061875;28;20406;-68
2022/12/23 09:33:55;;;;;;;15.70;10.65;;;;;;;15.87;94.88;100074.00;5094361;28;20402;-67
2022/12/23 09:36:28;;;;;;;13.02;7.63;;;;;;;16.02;94.72;100084.25;5077419;28;20062;-68
2022/12/23 09:38:56;;;;;;;14.95;9.05;;;;;;;15.98;95.97;100065.88;5095970;28;20047;-68
2022/12/23 09:41:45;;;;;;;36.25;21.33;;;;;;;16.21;94.33;100092.59;5076397;28;20043;-68
2022/12/23 09:44:28;;;;;;;7.38;2.85;;;;;;;16.04;92.91;100089.44;5092542;28;20044;-69
2022/12/23 09:46:59;;;;;;;9.32;4.38;;;;;;;16.14;92.63;100066.63;5056361;28;20055;-69
2022/12/23 09:49:27;;;;;;;14.68;8.27;;;;;;;16.27;93.56;100077.22;5058598;28;20055;-70
2022/12/23 09:52:02;;;;;;;10.80;6.70;;;;;;;16.47;94.29;100086.38;5075866;28;20055;-66
2022/12/23 09:54:40;;;;;;;20.10;11.32;;;;;;;16.21;93.08;100106.47;5089151;28;20313;-66
2022/12/23 09:57:27;;;;;;;7.20;3.47;;;;;;;16.30;92.01;100095.16;5113031;28;20383;-70
2022/12/23 09:59:57;;;;;;;12.18;6.43;;;;;;;16.17;91.57;100077.00;5058632;28;20052;-69
2022/12/23 10:02:24;;;;;;;;;;;;;;;16.24;90.53;100082.69;5097064;28;20055;-70
2022/12/23 10:05:15;;;;;;;4.10;2.53;;;;;;;16.45;90.45;100075.59;5079803;28;20391;-64
2022/12/23 10:07:47;;;;;;;5.10;2.30;;;;;;;16.33;90.40;100070.19;5075754;28;20047;-66
2022/12/23 10:10:38;;;;;;;8.30;3.60;;;;;;;16.25;90.12;100079.56;5082613;28;20047;-66
2022/12/23 10:13:23;;;;;;;5.65;3.03;;;;;;;16.21;91.54;100078.69;5079283;28;20043;-66
2022/12/23 10:15:52;;;;;;;3.22;1.88;;;;;;;16.20;90.91;100074.28;5076226;28;20044;-66
2022/12/23 10:18:34;;;;;;;5.88;1.50;;;;;;;16.08;92.27;100068.06;5061686;28;20058;-65
2022/12/23 10:21:05;;;;;;;3.88;1.30;;;;;;;16.27;91.11;100060.53;5050208;28;20521;-66
2022/12/23 10:23:37;;;;;;;3.92;1.77;;;;;;;16.22;92.18;100063.63;5097220;28;20044;-65
2022/12/23 10:26:14;;;;;;;5.05;2.10;;;;;;;16.09;92.71;100064.13;5090227;28;20051;-65
2022/12/23 10:28:41;;;;;;;5.93;2.55;;;;;;;16.00;94.27;100061.59;5037810;28;20058;-63
2022/12/23 10:31:16;;;;;;;9.38;5.00;;;;;;;16.10;95.84;100068.50;5099927;28;20051;-69
2022/12/23 10:34:29;;;;;;;11.30;3.25;;;;;;;15.89;96.22;100074.44;5074880;28;20513;-66
2022/12/23 10:37:07;;;;;;;7.22;2.60;;;;;;;16.00;96.72;100063.56;5090720;28;20071;-69
2022/12/23 10:40:04;;;;;;;7.25;2.03;;;;;;;15.81;96.71;100075.47;5100198;28;20039;-69
2022/12/23 10:42:44;;;;;;;3.28;1.20;;;;;;;15.88;96.11;100060.91;5019606;28;20195;-66
2022/12/23 10:45:18;;;;;;;4.78;1.52;;;;;;;15.92;96.58;100070.13;5094735;28;20798;-66
2022/12/23 10:48:03;;;;;;;6.25;1.50;;;;;;;15.77;96.81;100066.25;5083844;28;20056;-66
2022/12/23 10:51:00;;;;;;;2.58;1.30;;;;;;;15.90;96.63;100070.47;5064741;28;20406;-68
2022/12/23 11:04:49;;;;;;;4.57;1.75;;;;;;;16.36;90.68;100047.22;5082934;27;20401;-71
2022/12/23 11:07:20;;;;;;;9.82;2.70;;;;;;;16.46;91.04;100051.34;5066977;28;20041;-75
2022/12/23 11:10:18;;;;;;;6.97;2.10;;;;;;;16.54;91.68;100053.97;5067323;28;20043;-73
2022/12/23 11:12:49;;;;;;;3.03;1.02;;;;;;;16.33;90.50;100061.06;5063150;28;20045;-74
2022/12/23 11:15:38;;;;;;;2.92;1.40;;;;;;;16.37;89.86;100067.50;5077588;28;20064;-73
2022/12/23 11:18:10;;;;;;;2.25;0.88;;;;;;;16.36;89.92;100082.53;5072164;28;20063;-72
2022/12/23 11:20:39;;;;;;;2.72;1.30;;;;;;;16.29;89.44;100087.97;5070311;28;20057;-71
2022/12/23 11:23:25;;;;;;;4.68;1.33;;;;;;;16.37;90.04;100086.94;5069344;28;20033;-71
2022/12/23 11:26:06;;;;;;;3.08;1.00;;;;;;;16.45;90.00;100085.91;5067585;28;20424;-73
2022/12/23 11:28:46;;;;;;;4.20;1.70;;;;;;;16.66;89.27;100084.38;5064681;28;20514;-69
2022/12/23 11:31:16;;;;;;;4.90;2.25;;;;;;;16.61;89.23;100081.09;5069181;28;20044;-69
2022/12/23 11:34:00;;;;;;;4.50;1.33;;;;;;;16.60;88.37;100077.50;5070081;28;20040;-73
2022/12/23 11:36:29;;;;;;;5.40;1.17;;;;;;;16.42;88.53;100086.66;5069475;28;20080;-71
2022/12/23 11:39:22;;;;;;;7.90;3.00;;;;;;;16.64;87.84;100078.38;5077021;28;20052;-73
2022/12/23 11:41:52;;;;;;;5.13;1.30;;;;;;;16.77;86.30;100090.13;5067897;28;20470;-70
2022/12/23 11:44:25;;;;;;;;;;;;;;;16.73;86.47;100086.47;5072094;28;20052;-73
2022/12/23 11:46:53;;;;;;;3.72;1.23;;;;;;;16.75;86.74;100079.34;5078239;28;19991;-73
2022/12/23 11:49:32;;;;;;;4.72;2.60;;;;;;;16.85;85.90;100061.25;5088360;28;20053;-74
2022/12/23 11:52:01;;;;;;;5.47;1.60;;;;;;;16.82;85.73;100073.91;5064162;28;20049;-68
2022/12/23 11:54:28;;;;;;;34.03;22.60;;;;;;;16.79;85.76;100074.66;5069869;28;20299;-68
2022/12/23 11:56:56;;;;;;;67.78;43.55;;;;;;;16.72;85.90;100068.97;5082037;28;20040;-69
2022/12/23 11:59:38;;;;;;;8.20;4.28;;;;;;;16.45;86.01;100075.59;5075521;28;20053;-75
2022/12/23 12:02:20;;;;;;;5.30;3.00;;;;;;;16.75;85.59;100082.13;5068220;28;20768;-70
2022/12/23 12:05:01;;;;;;;5.63;2.03;;;;;;;16.85;85.03;100059.28;5066681;28;20059;-64
2022/12/23 12:07:29;;;;;;;;;;;;;;;16.96;84.72;100056.69;5052152;28;20049;-67
2022/12/23 12:09:58;;;;;;;5.13;1.85;;;;;;;16.67;83.90;100074.03;5051008;28;20279;-70
2022/12/23 12:12:26;;;;;;;3.85;1.80;;;;;;;16.52;83.90;100055.50;5052142;28;20053;-79
2022/12/23 12:14:56;;;;;;;4.97;1.77;;;;;;;16.48;84.48;100071.28;5042747;28;20056;-78
2022/12/23 12:17:35;;;;;;;6.15;1.60;;;;;;;16.47;85.48;100070.50;5057447;28;20250;-77
2022/12/23 12:20:19;;;;;;;4.47;1.60;;;;;;;16.62;85.46;100085.47;5035509;28;20045;-71
2022/12/23 12:23:09;;;;;;;7.50;1.60;;;;;;;16.46;85.46;100066.09;5020005;28;20060;-75
2022/12/23 12:25:40;;;;;;;5.05;1.80;;;;;;;16.37;85.41;100048.03;5058938;28;20053;-76